createdAt,value
2022-08-12T00:00:55.111Z,25.10
2022-08-12T00:03:23.533Z,25.20
2022-08-12T00:06:04.110Z,25.20
2022-08-12T00:08:36.750Z,25.10
2022-08-12T00:11:12.277Z,25.10
2022-08-12T00:13:41.144Z,25.10
2022-08-12T00:16:09.626Z,25.20
2022-08-12T00:18:38.728Z,25.10
2022-08-12T00:21:07.184Z,25.10
2022-08-12T00:23:36.514Z,25.20
2022-08-12T00:26:23.748Z,25.20
2022-08-12T00:28:54.436Z,25.10
2022-08-12T00:31:22.736Z,25.20
2022-08-12T00:33:50.969Z,25.20
2022-08-12T00:36:35.157Z,25.20
2022-08-12T00:39:04.862Z,25.20
2022-08-12T00:41:33.603Z,25.20
2022-08-12T00:44:03.803Z,25.20
2022-08-12T00:46:45.130Z,25.20
2022-08-12T00:49:14.172Z,25.30
2022-08-12T00:51:43.643Z,25.20
2022-08-12T00:54:13.806Z,25.20
2022-08-12T00:56:42.960Z,25.30
2022-08-12T00:59:12.224Z,25.30
2022-08-12T01:02:11.321Z,25.30
2022-08-12T01:04:38.038Z,25.30
2022-08-12T01:07:07.706Z,25.20
2022-08-12T01:09:35.852Z,25.20
2022-08-12T01:12:06.199Z,25.20
2022-08-12T01:14:34.711Z,25.30
2022-08-12T01:17:02.998Z,25.20
2022-08-12T01:19:31.729Z,25.20
2022-08-12T01:22:15.126Z,25.30
2022-08-12T01:24:49.696Z,25.20
2022-08-12T01:27:19.101Z,25.20
2022-08-12T01:29:49.647Z,25.20
2022-08-12T01:32:21.720Z,25.20
2022-08-12T01:35:11.498Z,25.10
2022-08-12T01:38:06.401Z,25.10
2022-08-12T01:40:38.303Z,25.10
2022-08-12T01:43:10.078Z,25.10
2022-08-12T01:45:47.973Z,25.10
2022-08-12T01:48:40.948Z,25.00
2022-08-12T01:52:15.034Z,25.10
2022-08-12T01:54:24.505Z,25.10
2022-08-12T01:57:01.576Z,25.10
2022-08-12T01:59:38.550Z,25.10
2022-08-12T02:02:11.047Z,25.10
2022-08-12T02:05:13.219Z,25.10
2022-08-12T02:08:18.745Z,25.20
2022-08-12T02:10:58.483Z,25.10
2022-08-12T02:13:58.942Z,25.20
2022-08-12T02:16:48.395Z,25.20
2022-08-12T02:19:53.638Z,25.20
2022-08-12T02:22:34.665Z,25.20
2022-08-12T02:25:12.029Z,25.10
2022-08-12T02:27:43.363Z,25.20
2022-08-12T02:30:15.209Z,25.20
2022-08-12T02:32:45.706Z,25.10
2022-08-12T02:35:17.839Z,25.20
2022-08-12T02:37:47.618Z,25.10
2022-08-12T02:40:17.796Z,25.10
2022-08-12T02:43:03.089Z,25.10
2022-08-12T02:45:54.346Z,25.10
2022-08-12T02:49:14.396Z,25.10
2022-08-12T02:51:46.083Z,25.00
2022-08-12T02:54:14.352Z,24.90
2022-08-12T02:56:50.253Z,24.80
2022-08-12T02:59:24.422Z,24.90
2022-08-12T03:01:56.169Z,24.80
2022-08-12T03:04:37.918Z,24.80
2022-08-12T03:07:22.189Z,24.80
2022-08-12T03:10:08.731Z,24.80
2022-08-12T03:12:49.516Z,24.70
2022-08-12T03:15:22.240Z,24.80
2022-08-12T03:18:25.510Z,24.70
2022-08-12T03:20:52.651Z,24.70
2022-08-12T03:23:30.283Z,24.80
2022-08-12T03:26:01.346Z,24.80
2022-08-12T03:28:34.148Z,24.80
2022-08-12T03:31:05.077Z,24.90
2022-08-12T03:33:42.232Z,24.90
2022-08-12T03:36:11.168Z,24.80
2022-08-12T03:38:39.951Z,24.90
2022-08-12T03:41:20.309Z,24.80
2022-08-12T03:43:56.974Z,24.90
2022-08-12T03:46:34.104Z,25.00
2022-08-12T03:49:02.717Z,25.00
2022-08-12T03:51:31.189Z,25.00
2022-08-12T03:53:59.648Z,25.00
2022-08-12T03:56:28.362Z,25.00
2022-08-12T03:58:59.851Z,25.10
2022-08-12T04:01:28.554Z,25.10
2022-08-12T04:03:56.795Z,25.10
2022-08-12T04:06:35.094Z,25.00
2022-08-12T04:09:14.539Z,25.00
2022-08-12T04:11:45.651Z,25.00
2022-08-12T04:14:17.053Z,25.10
2022-08-12T04:16:45.532Z,25.10
2022-08-12T04:19:15.024Z,25.00
2022-08-12T04:22:01.233Z,25.00
2022-08-12T04:24:33.574Z,25.00
2022-08-12T04:27:02.001Z,25.00
2022-08-12T04:30:21.084Z,25.00
2022-08-12T04:32:18.505Z,25.10
2022-08-12T04:34:46.740Z,25.00
2022-08-12T04:37:14.963Z,25.10
2022-08-12T04:39:46.116Z,25.00
2022-08-12T04:42:14.714Z,25.10
2022-08-12T04:44:42.907Z,25.10
2022-08-12T04:47:15.411Z,25.10
2022-08-12T04:49:46.330Z,25.10
2022-08-12T04:52:15.740Z,25.10
2022-08-12T04:54:44.255Z,25.00
2022-08-12T04:57:12.594Z,25.00
2022-08-12T04:59:43.654Z,25.10
2022-08-12T05:02:22.767Z,25.00
2022-08-12T05:04:56.016Z,25.10
2022-08-12T05:07:29.143Z,25.10
2022-08-12T05:10:00.205Z,25.10
2022-08-12T05:12:40.114Z,25.10
2022-08-12T05:15:18.906Z,25.10
2022-08-12T05:17:48.456Z,25.10
2022-08-12T05:20:16.615Z,25.10
2022-08-12T05:22:45.981Z,25.10
2022-08-12T05:25:15.070Z,25.20
2022-08-12T05:27:58.752Z,25.10
2022-08-12T05:30:31.237Z,25.10
2022-08-12T05:33:00.568Z,25.10
2022-08-12T05:35:29.112Z,25.10
2022-08-12T05:37:57.316Z,25.10
2022-08-12T05:40:25.527Z,25.10
2022-08-12T05:42:53.853Z,25.10
2022-08-12T05:45:22.101Z,25.10
2022-08-12T05:47:53.281Z,25.10
2022-08-12T05:50:22.568Z,25.10
2022-08-12T05:52:50.904Z,25.10
2022-08-12T05:55:22.161Z,25.10
2022-08-12T05:57:58.181Z,25.10
2022-08-12T06:03:57.718Z,25.00
2022-08-12T06:06:27.756Z,25.00
2022-08-12T06:08:56.324Z,25.00
2022-08-12T06:11:25.663Z,25.00
2022-08-12T06:13:54.947Z,25.00
2022-08-12T06:16:24.057Z,25.00
2022-08-12T06:18:52.504Z,25.00
2022-08-12T06:21:22.287Z,25.00
2022-08-12T06:23:52.001Z,25.00
2022-08-12T06:26:20.387Z,25.00
2022-08-12T06:28:50.147Z,25.00
2022-08-12T06:31:26.155Z,25.00
2022-08-12T06:34:51.602Z,25.00
2022-08-12T06:36:44.612Z,25.00
2022-08-12T06:39:15.355Z,24.90
2022-08-12T06:42:10.783Z,25.00
2022-08-12T06:44:32.675Z,25.00
2022-08-12T06:47:01.194Z,25.00
2022-08-12T06:49:29.540Z,25.00
2022-08-12T06:51:57.708Z,25.00
2022-08-12T06:54:29.799Z,25.00
2022-08-12T06:57:59.722Z,25.00
2022-08-12T06:59:49.330Z,25.00
2022-08-12T07:02:17.718Z,25.00
2022-08-12T07:04:46.251Z,25.00
2022-08-12T07:07:14.516Z,25.00
2022-08-12T07:10:06.034Z,25.00
2022-08-12T07:12:32.139Z,25.00
2022-08-12T07:15:01.096Z,25.10
2022-08-12T07:17:29.857Z,25.10
2022-08-12T07:20:03.452Z,25.10
2022-08-12T07:22:32.766Z,25.10
2022-08-12T07:25:01.095Z,25.20
2022-08-12T07:27:29.187Z,25.10
2022-08-12T07:30:04.273Z,25.10
2022-08-12T07:32:33.711Z,25.20
2022-08-12T07:35:02.055Z,25.20
2022-08-12T07:37:30.503Z,25.30
2022-08-12T07:40:00.274Z,25.30
2022-08-12T07:42:30.282Z,25.30
2022-08-12T07:44:58.580Z,25.40
2022-08-12T07:47:26.776Z,25.40
2022-08-12T07:50:05.461Z,25.50
2022-08-12T07:52:36.706Z,25.50
2022-08-12T07:55:06.172Z,25.50
2022-08-12T07:57:35.298Z,25.50
2022-08-12T08:00:06.333Z,25.50
2022-08-12T08:02:37.898Z,25.60
2022-08-12T08:05:07.061Z,25.60
2022-08-12T08:07:35.480Z,25.60
2022-08-12T08:10:10.139Z,25.60
2022-08-12T08:12:39.029Z,25.60
2022-08-12T08:15:07.419Z,25.60
2022-08-12T08:17:36.032Z,25.60
2022-08-12T08:20:05.996Z,25.60
2022-08-12T08:22:41.406Z,25.70
2022-08-12T08:25:20.138Z,25.70
2022-08-12T08:28:23.197Z,25.80
2022-08-12T08:30:51.575Z,25.90
2022-08-12T08:33:23.780Z,26.10
2022-08-12T08:36:23.675Z,26.10
2022-08-12T08:38:57.551Z,26.20
2022-08-12T08:42:17.445Z,26.30
2022-08-12T08:44:18.042Z,26.30
2022-08-12T08:46:47.115Z,26.30
2022-08-12T08:49:15.923Z,26.30
2022-08-12T08:51:45.809Z,26.30
2022-08-12T08:54:14.561Z,26.30
2022-08-12T08:56:44.392Z,26.30
2022-08-12T08:59:13.892Z,26.30
2022-08-12T09:01:44.230Z,26.30
2022-08-12T09:05:11.779Z,26.40
2022-08-12T09:07:16.539Z,26.50
2022-08-12T09:10:03.517Z,26.60
2022-08-12T09:12:33.339Z,26.70
2022-08-12T09:15:16.618Z,26.80
2022-08-12T09:17:59.759Z,26.90
2022-08-12T09:20:33.866Z,26.80
2022-08-12T09:23:07.779Z,26.70
2022-08-12T09:25:53.123Z,26.80
2022-08-12T09:28:31.296Z,26.80
2022-08-12T09:31:00.697Z,26.80
2022-08-12T09:34:27.533Z,26.90
2022-08-12T09:36:31.055Z,26.90
2022-08-12T09:40:01.370Z,26.90
2022-08-12T09:42:35.244Z,26.90
2022-08-12T09:44:44.003Z,26.80
2022-08-12T09:47:12.573Z,26.80
2022-08-12T09:51:37.199Z,26.80
2022-08-12T09:54:31.516Z,26.80
2022-08-12T09:57:01.928Z,26.80
2022-08-12T10:00:17.382Z,26.80
2022-08-12T10:02:49.620Z,26.80
2022-08-12T10:05:13.946Z,26.80
2022-08-12T10:07:46.450Z,26.70
2022-08-12T10:10:24.389Z,26.70
2022-08-12T10:13:06.693Z,26.70
2022-08-12T10:16:02.206Z,26.70
2022-08-12T10:18:26.282Z,26.70
2022-08-12T10:20:54.955Z,26.70
2022-08-12T10:23:40.098Z,26.70
2022-08-12T10:26:34.466Z,26.80
2022-08-12T10:29:02.428Z,26.90
2022-08-12T10:31:47.076Z,26.90
2022-08-12T10:34:25.909Z,27.00
2022-08-12T10:36:58.299Z,27.10
2022-08-12T10:40:00.337Z,27.10
2022-08-12T10:42:39.674Z,27.10
2022-08-12T10:45:17.036Z,27.10
2022-08-12T10:48:19.165Z,27.20
2022-08-12T10:51:01.185Z,27.20
2022-08-12T10:55:02.255Z,27.20
2022-08-12T10:58:15.225Z,27.20
2022-08-12T11:00:33.718Z,27.20
2022-08-12T11:04:23.366Z,27.30
2022-08-12T11:07:09.094Z,27.40
2022-08-12T11:08:46.227Z,27.50
2022-08-12T11:11:16.842Z,27.50
2022-08-12T11:13:48.941Z,27.50
2022-08-12T11:16:21.850Z,27.50
2022-08-12T11:18:55.237Z,27.50
2022-08-12T11:21:57.071Z,27.50
2022-08-12T11:24:30.414Z,27.40
2022-08-12T11:27:01.764Z,27.40
2022-08-12T11:30:06.567Z,27.40
2022-08-12T11:32:26.796Z,27.40
2022-08-12T11:34:55.431Z,27.50
2022-08-12T11:37:27.877Z,27.60
2022-08-12T11:42:47.020Z,27.80
2022-08-12T11:45:16.977Z,27.70
2022-08-12T11:47:46.226Z,27.70
2022-08-12T11:50:18.935Z,27.80
2022-08-12T11:52:56.318Z,27.70
2022-08-12T11:55:29.526Z,27.80
2022-08-12T11:58:33.304Z,27.80
2022-08-12T12:03:44.154Z,27.60
2022-08-12T12:06:20.905Z,27.60
2022-08-12T12:08:53.740Z,27.50
2022-08-12T12:11:23.903Z,27.50
2022-08-12T12:14:08.554Z,27.60
2022-08-12T12:16:48.257Z,27.60
2022-08-12T12:19:19.304Z,27.60
2022-08-12T12:21:49.562Z,27.50
2022-08-12T12:24:21.846Z,27.50
2022-08-12T12:27:00.527Z,27.70
2022-08-12T12:30:19.552Z,27.80
2022-08-12T12:32:29.090Z,27.90
2022-08-12T12:35:14.166Z,28.00
2022-08-12T12:38:12.258Z,28.00
2022-08-12T12:40:44.522Z,28.00
2022-08-12T12:43:14.125Z,27.90
2022-08-12T12:45:44.431Z,27.90
2022-08-12T12:48:18.733Z,27.90
2022-08-12T12:50:55.459Z,28.00
2022-08-12T12:54:06.079Z,28.20
2022-08-12T12:56:20.800Z,28.10
2022-08-12T12:59:03.870Z,28.20
2022-08-12T13:01:36.454Z,28.30
2022-08-12T13:04:07.297Z,28.20
2022-08-12T13:06:40.719Z,28.00
2022-08-12T13:09:12.750Z,27.90
2022-08-12T13:11:44.553Z,27.90
2022-08-12T13:14:29.212Z,27.90
2022-08-12T13:17:03.338Z,27.90
2022-08-12T13:19:38.628Z,28.10
2022-08-12T13:22:11.789Z,28.20
2022-08-12T13:24:51.824Z,28.20
2022-08-12T13:27:28.260Z,28.20
2022-08-12T13:30:04.414Z,28.10
2022-08-12T13:32:35.871Z,28.00
2022-08-12T13:35:19.888Z,28.00
2022-08-12T13:37:56.142Z,28.10
2022-08-12T13:40:27.100Z,28.10
2022-08-12T13:42:56.248Z,28.10
2022-08-12T13:45:29.202Z,28.10
2022-08-12T13:48:08.401Z,28.30
2022-08-12T13:50:38.409Z,28.30
2022-08-12T13:53:23.878Z,28.50
2022-08-12T13:56:01.217Z,28.50
2022-08-12T13:58:34.716Z,28.50
2022-08-12T14:01:04.733Z,28.40
2022-08-12T14:03:50.905Z,28.50
2022-08-12T14:06:21.600Z,28.50
2022-08-12T14:08:54.793Z,28.50
2022-08-12T14:11:25.525Z,28.70
2022-08-12T14:14:03.800Z,28.60
2022-08-12T14:16:49.357Z,28.50
2022-08-12T14:19:24.250Z,28.40
2022-08-12T14:22:01.299Z,28.40
2022-08-12T14:24:33.808Z,28.40
2022-08-12T14:27:02.743Z,28.50
2022-08-12T14:29:55.772Z,28.40
2022-08-12T14:32:19.995Z,28.50
2022-08-12T14:34:52.213Z,28.70
2022-08-12T14:37:58.063Z,28.80
2022-08-12T14:40:10.069Z,28.70
2022-08-12T14:42:38.638Z,28.70
2022-08-12T14:45:08.635Z,28.80
2022-08-12T14:47:51.431Z,28.80
2022-08-12T14:50:58.624Z,28.80
2022-08-12T14:58:51.643Z,28.80
2022-08-12T15:01:30.955Z,28.60
2022-08-12T15:04:03.459Z,28.60
2022-08-12T15:06:39.814Z,28.70
2022-08-12T15:09:19.421Z,28.70
2022-08-12T15:12:04.146Z,28.60
2022-08-12T15:14:35.279Z,28.70
2022-08-12T15:17:06.526Z,28.60
2022-08-12T15:20:11.419Z,28.50
2022-08-12T15:22:37.983Z,28.40
2022-08-12T15:25:17.762Z,28.40
2022-08-12T15:28:04.156Z,28.50
2022-08-12T15:30:41.439Z,28.50
2022-08-12T15:33:12.710Z,28.40
2022-08-12T15:35:50.368Z,28.30
2022-08-12T15:38:25.069Z,28.10
2022-08-12T15:40:56.051Z,28.00
2022-08-12T15:44:16.317Z,27.90
2022-08-12T15:46:17.938Z,27.80
2022-08-12T15:48:50.261Z,27.70
2022-08-12T15:51:58.089Z,27.60
2022-08-12T15:54:34.343Z,27.60
2022-08-12T15:57:07.652Z,27.50
2022-08-12T16:00:00.368Z,27.50
2022-08-12T16:02:29.726Z,27.50
2022-08-12T16:04:58.813Z,27.50
2022-08-12T16:07:31.083Z,27.60
2022-08-12T16:10:10.193Z,27.50
2022-08-12T16:12:54.943Z,27.40
2022-08-12T16:15:29.579Z,27.40
2022-08-12T16:18:19.710Z,27.30
2022-08-12T16:20:52.843Z,27.30
2022-08-12T16:23:26.813Z,27.20
2022-08-12T16:26:05.357Z,27.20
2022-08-12T16:28:47.561Z,27.10
2022-08-12T16:31:23.276Z,27.20
2022-08-12T16:33:58.767Z,27.20
2022-08-12T16:36:32.536Z,27.10
2022-08-12T16:39:02.039Z,27.10
2022-08-12T16:41:38.195Z,27.00
2022-08-12T16:44:09.574Z,26.90
2022-08-12T16:46:38.968Z,26.90
2022-08-12T16:49:13.067Z,27.00
2022-08-12T16:51:47.523Z,27.00
2022-08-12T16:54:17.298Z,27.00
2022-08-12T16:56:50.786Z,27.10
2022-08-12T16:59:23.775Z,27.00
2022-08-12T17:01:52.338Z,27.00
2022-08-12T17:04:24.159Z,27.00
2022-08-12T17:06:53.062Z,27.00
2022-08-12T17:09:21.746Z,26.90
2022-08-12T17:11:50.440Z,26.90
2022-08-12T17:14:23.152Z,26.80
2022-08-12T17:16:52.854Z,26.80
2022-08-12T17:20:02.630Z,26.70
2022-08-12T17:22:12.332Z,26.80
2022-08-12T17:24:54.968Z,26.70
2022-08-12T17:27:30.863Z,26.70
2022-08-12T17:30:03.593Z,26.70
2022-08-12T17:32:33.810Z,26.70
2022-08-12T17:35:02.798Z,26.60
2022-08-12T17:37:31.057Z,26.60
2022-08-12T17:40:15.986Z,26.60
2022-08-12T17:42:47.550Z,26.50
2022-08-12T17:45:19.403Z,26.60
2022-08-12T17:48:04.511Z,26.60
2022-08-12T17:50:40.444Z,26.50
2022-08-12T17:53:10.781Z,26.60
2022-08-12T17:55:47.748Z,26.60
2022-08-12T17:58:22.160Z,26.60
2022-08-12T18:01:04.681Z,26.60
2022-08-12T18:04:05.321Z,26.60
2022-08-12T18:06:22.003Z,26.60
2022-08-12T18:08:59.156Z,26.50
2022-08-12T18:12:04.274Z,26.50
2022-08-12T18:14:27.676Z,26.50
2022-08-12T18:17:00.738Z,26.70
2022-08-12T18:20:03.530Z,26.80
2022-08-12T18:22:22.259Z,26.80
2022-08-12T18:26:11.570Z,26.80
2022-08-12T18:28:15.630Z,26.80
2022-08-12T18:30:53.249Z,26.80
2022-08-12T18:33:23.994Z,26.80
2022-08-12T18:35:55.671Z,26.70
2022-08-12T18:38:25.916Z,26.70
2022-08-12T18:40:56.068Z,26.70
2022-08-12T18:43:25.971Z,26.60
2022-08-12T18:45:59.322Z,26.60
2022-08-12T18:48:27.787Z,26.50
2022-08-12T18:51:04.561Z,26.50
2022-08-12T18:54:07.179Z,26.50
2022-08-12T18:56:33.515Z,26.40
2022-08-12T18:59:04.074Z,26.30
2022-08-12T19:02:21.877Z,26.40
2022-08-12T19:04:26.252Z,26.30
2022-08-12T19:06:54.581Z,26.30
2022-08-12T19:09:24.918Z,26.30
2022-08-12T19:12:09.626Z,26.20
2022-08-12T19:14:38.272Z,26.30
2022-08-12T19:17:11.601Z,26.30
2022-08-12T19:19:41.945Z,26.20
2022-08-12T19:22:11.797Z,26.20
2022-08-12T19:27:38.286Z,26.10
2022-08-12T19:30:35.478Z,26.10
2022-08-12T19:33:05.211Z,26.10
2022-08-12T19:36:06.662Z,26.10
2022-08-12T19:38:21.927Z,26.10
2022-08-12T19:42:53.726Z,26.10
2022-08-12T19:45:42.295Z,26.10
2022-08-12T19:48:17.064Z,26.10
2022-08-12T19:50:49.918Z,26.10
2022-08-12T19:53:19.352Z,26.10
2022-08-12T19:55:50.848Z,26.10
2022-08-12T19:58:22.348Z,26.10
2022-08-12T20:00:55.845Z,26.10
2022-08-12T20:03:39.974Z,26.10
2022-08-12T20:06:15.521Z,26.10
2022-08-12T20:08:55.957Z,26.10
2022-08-12T20:12:13.854Z,26.10
2022-08-12T20:14:19.636Z,26.10
2022-08-12T20:16:51.926Z,26.00
2022-08-12T20:19:23.884Z,26.10
2022-08-12T20:22:14.749Z,26.10
2022-08-12T20:24:43.817Z,26.10
2022-08-12T20:27:29.330Z,26.00
2022-08-12T20:30:04.949Z,26.00
2022-08-12T20:32:47.396Z,26.00
2022-08-12T20:35:19.686Z,26.00
2022-08-12T20:38:06.389Z,26.00
2022-08-12T20:40:38.172Z,26.00
2022-08-12T20:43:06.905Z,26.00
2022-08-12T20:45:44.659Z,26.00
2022-08-12T20:48:19.517Z,26.00
2022-08-12T20:50:53.647Z,26.00
2022-08-12T20:53:33.309Z,26.00
2022-08-12T20:56:35.128Z,26.00
2022-08-12T20:59:03.058Z,26.00
2022-08-12T21:01:46.166Z,25.90
2022-08-12T21:04:18.127Z,25.90
2022-08-12T21:06:46.681Z,25.90
2022-08-12T21:09:17.508Z,25.90
2022-08-12T21:11:49.425Z,25.90
2022-08-12T21:14:18.288Z,25.90
2022-08-12T21:17:06.658Z,25.90
2022-08-12T21:19:51.743Z,25.90
2022-08-12T21:22:24.399Z,25.90
2022-08-12T21:24:53.304Z,25.90
2022-08-12T21:27:59.371Z,25.90
2022-08-12T21:30:13.181Z,25.90
2022-08-12T21:32:41.621Z,25.90
2022-08-12T21:35:10.143Z,25.90
2022-08-12T21:37:52.921Z,25.80
2022-08-12T21:40:21.862Z,25.90
2022-08-12T21:43:05.732Z,25.90
2022-08-12T21:45:45.730Z,25.80
2022-08-12T21:48:22.549Z,25.90
2022-08-12T21:50:51.183Z,25.90
2022-08-12T21:53:20.018Z,25.90
2022-08-12T21:55:51.393Z,25.90
2022-08-12T21:58:19.796Z,25.90
2022-08-12T22:00:48.702Z,25.90
2022-08-12T22:03:17.277Z,25.90
2022-08-12T22:06:05.579Z,25.90
2022-08-12T22:08:33.801Z,25.90
2022-08-12T22:11:02.163Z,25.90
2022-08-12T22:14:07.746Z,25.90
2022-08-12T22:16:20.235Z,25.90
2022-08-12T22:18:52.492Z,25.90
2022-08-12T22:21:22.308Z,25.90
2022-08-12T22:24:05.006Z,25.90
2022-08-12T22:26:37.279Z,25.90
2022-08-12T22:29:06.367Z,25.90
2022-08-12T22:31:34.688Z,25.90
2022-08-12T22:34:04.078Z,25.90
2022-08-12T22:36:33.210Z,25.90
2022-08-12T22:39:01.702Z,25.90
2022-08-12T22:41:30.539Z,25.90
2022-08-12T22:44:02.461Z,25.90
2022-08-12T22:46:33.945Z,25.90
2022-08-12T22:49:02.532Z,25.90
2022-08-12T22:52:00.970Z,25.90
2022-08-12T22:54:35.674Z,25.90
2022-08-12T22:57:12.411Z,25.90
2022-08-12T22:59:55.656Z,25.80
2022-08-12T23:02:28.947Z,25.90
2022-08-12T23:04:59.064Z,25.80
2022-08-12T23:07:27.737Z,25.80
2022-08-12T23:10:05.177Z,25.80
2022-08-12T23:12:34.247Z,25.80
2022-08-12T23:15:06.539Z,25.80
2022-08-12T23:17:40.706Z,25.70
2022-08-12T23:20:11.578Z,25.80
2022-08-12T23:22:40.366Z,25.80
2022-08-12T23:25:18.797Z,25.70
2022-08-12T23:27:51.614Z,25.70
2022-08-12T23:30:31.636Z,25.70
2022-08-12T23:33:19.923Z,25.70
2022-08-12T23:36:02.192Z,25.70
2022-08-12T23:38:33.260Z,25.80
2022-08-12T23:41:04.261Z,25.80
2022-08-12T23:43:38.827Z,25.80
2022-08-12T23:46:10.950Z,25.80
2022-08-12T23:48:40.791Z,25.70
2022-08-12T23:51:22.958Z,25.70
2022-08-12T23:54:01.187Z,25.70
2022-08-12T23:56:30.958Z,25.70
2022-08-12T23:59:00.416Z,25.80
